Time;durP1;ratioP1;P1;durP2;ratioP2;P2;SDS_P1;SDS_P2;PMS_P1;PMS_P2;Temp;Humidity;BMP_temperature;BMP_pressure;BME280_temperature;BME280_humidity;BME280_pressure;Samples;Min_cycle;Max_cycle;Signal;HPM_P1;HPM_P2
2021/11/14 00:00:47;;;;;;;;;8.33;8.33;;;;;12.01;72.29;101425.78;4971023;28;45487;-74
2021/11/14 00:03:12;;;;;;;;;11.33;8.00;;;;;12.03;72.01;101428.31;4970225;28;45416;-71
2021/11/14 00:05:40;;;;;;;;;11.00;7.67;;;;;12.02;71.77;101423.97;4972177;28;47223;-72
2021/11/14 00:08:06;;;;;;;;;11.00;11.00;;;;;12.02;72.16;101430.06;4969867;28;45356;-70
2021/11/14 00:10:33;;;;;;;;;10.33;8.00;;;;;12.03;72.02;101429.13;4971517;28;45371;-71
2021/11/14 00:12:58;;;;;;;;;11.67;9.00;;;;;12.04;72.48;101430.81;4971630;28;45538;-73
2021/11/14 00:15:24;;;;;;;;;13.00;9.67;;;;;12.07;72.29;101434.19;4970836;28;47364;-72
2021/11/14 00:17:49;;;;;;;;;12.67;9.00;;;;;12.08;72.11;101428.81;4972492;28;45301;-71
2021/11/14 00:20:16;;;;;;;;;9.33;7.00;;;;;12.10;72.36;101429.53;4971118;28;45348;-71
2021/11/14 00:22:41;;;;;;;;;12.33;8.33;;;;;12.12;72.30;101432.09;4968784;28;45565;-74
2021/11/14 00:25:08;;;;;;;;;11.67;9.33;;;;;12.14;72.44;101425.78;4970730;28;45956;-71
2021/11/14 00:27:34;;;;;;;;;12.67;7.00;;;;;12.14;72.07;101419.66;4970793;28;45397;-72
2021/11/14 00:29:59;;;;;;;;;8.00;8.00;;;;;12.16;72.11;101425.66;4972906;28;45660;-73
2021/11/14 00:32:26;;;;;;;;;8.00;6.00;;;;;12.16;71.79;101434.38;4970861;28;45419;-71
2021/11/14 00:34:51;;;;;;;;;7.00;6.00;;;;;12.15;72.26;101431.88;4970129;28;46197;-72
2021/11/14 00:37:18;;;;;;;;;12.00;8.67;;;;;12.15;71.82;101426.59;4968571;28;45566;-71
2021/11/14 00:39:44;;;;;;;;;9.33;9.00;;;;;12.15;72.23;101423.97;4980029;28;45498;-71
2021/11/14 00:42:10;;;;;;;;;8.00;7.00;;;;;12.15;71.74;101422.16;4969062;28;45476;-71
2021/11/14 00:44:36;;;;;;;;;7.00;7.00;;;;;12.24;72.14;101427.75;4972312;28;45464;-71
2021/11/14 00:47:02;;;;;;;;;7.00;7.00;;;;;12.28;72.01;101429.22;4972247;28;45367;-71
2021/11/14 00:49:27;;;;;;;;;11.33;8.00;;;;;12.35;72.11;101428.69;4969539;28;45436;-71
2021/11/14 00:51:53;;;;;;;;;10.00;9.00;;;;;12.38;71.44;101423.19;4969654;28;45420;-72
2021/11/14 00:54:19;;;;;;;;;10.33;8.00;;;;;12.37;71.79;101425.94;4971007;28;47044;-71
2021/11/14 00:56:44;;;;;;;;;12.00;9.67;;;;;12.48;71.51;101430.44;4972735;28;45323;-71
2021/11/14 00:59:10;;;;;;;;;11.67;8.33;;;;;12.51;71.08;101424.97;4971837;28;45390;-70
2021/11/14 01:01:35;;;;;;;;;11.67;8.33;;;;;12.52;71.09;101430.13;4971483;28;45307;-71
2021/11/14 01:04:04;;;;;;;;;9.00;9.00;;;;;12.49;71.18;101419.81;4969107;28;45375;-72
2021/11/14 01:06:30;;;;;;;;;14.33;9.00;;;;;12.50;70.95;101421.47;4969580;28;45502;-67
2021/11/14 01:08:55;;;;;;;;;9.00;8.00;;;;;12.51;71.21;101424.97;4973097;28;45606;-74
2021/11/14 01:11:21;;;;;;;;;10.00;7.00;;;;;12.52;70.94;101419.56;4973975;28;45314;-70
2021/11/14 01:13:46;;;;;;;;;11.33;8.00;;;;;12.50;71.02;101415.38;4968961;28;46317;-73
2021/11/14 01:16:15;;;;;;;;;11.33;7.67;;;;;12.53;71.01;101431.81;4968976;27;45689;-75
2021/11/14 01:18:42;;;;;;;;;10.33;8.67;;;;;12.54;71.18;101432.63;4984539;28;45518;-72
2021/11/14 01:21:13;;;;;;;;;8.00;8.00;;;;;12.58;71.27;101434.09;4971885;28;45528;-74
2021/11/14 01:23:40;;;;;;;;;9.67;8.00;;;;;12.58;71.03;101430.63;4970107;28;45711;-74
2021/11/14 01:26:06;;;;;;;;;16.33;12.00;;;;;12.60;70.87;101436.63;4970054;28;45420;-75
2021/11/14 01:28:31;;;;;;;;;12.67;9.00;;;;;12.60;71.04;101432.22;4971000;28;45569;-73
2021/11/14 01:30:57;;;;;;;;;6.00;5.67;;;;;12.61;70.87;101431.25;4968617;28;45383;-74
2021/11/14 01:33:25;;;;;;;;;6.00;4.33;;;;;12.60;70.57;101426.94;4970100;28;45552;-74
2021/11/14 01:35:53;;;;;;;;;12.33;10.00;;;;;12.58;70.76;101428.00;4972281;28;45387;-74
2021/11/14 01:38:19;;;;;;;;;13.00;10.67;;;;;12.59;70.65;101434.97;4970565;28;45506;-74
2021/11/14 01:40:51;;;;;;;;;8.33;7.33;;;;;12.58;70.41;101430.63;4969402;28;45691;-74
2021/11/14 01:43:23;;;;;;;;;11.33;8.33;;;;;12.56;70.93;101433.38;4971285;28;46968;-75
2021/11/14 01:45:48;;;;;;;;;10.67;8.00;;;;;12.55;70.71;101434.31;4971411;28;45558;-74
2021/11/14 01:48:16;;;;;;;;;14.00;9.00;;;;;12.55;70.40;101434.31;4974853;28;47426;-74
2021/11/14 01:50:42;;;;;;;;;10.33;7.67;;;;;12.52;70.76;101427.47;4970843;28;45580;-75
2021/11/14 01:53:08;;;;;;;;;11.33;7.67;;;;;12.52;71.08;101434.56;4970880;27;45503;-73
2021/11/14 01:55:35;;;;;;;;;8.67;8.67;;;;;12.53;71.01;101436.22;4972691;28;45634;-74
2021/11/14 01:58:01;;;;;;;;;12.33;9.67;;;;;12.49;70.94;101430.34;4972486;28;45520;-74
2021/11/14 02:00:38;;;;;;;;;12.33;9.33;;;;;12.50;70.93;101423.28;4973169;28;45345;-74
2021/11/14 02:03:04;;;;;;;;;13.33;8.00;;;;;12.50;71.14;101436.44;4971462;28;46327;-75
2021/11/14 02:05:32;;;;;;;;;11.67;10.00;;;;;12.47;71.43;101434.88;4974161;28;45306;-73
2021/11/14 02:08:01;;;;;;;;;14.00;9.00;;;;;12.48;71.16;101439.19;4967286;28;45355;-74
2021/11/14 02:10:29;;;;;;;;;10.67;7.33;;;;;12.49;71.25;101434.75;4973142;28;45428;-74
2021/11/14 02:12:56;;;;;;;;;9.33;8.67;;;;;12.49;71.13;101446.16;4972918;28;46109;-74
2021/11/14 02:15:21;;;;;;;;;12.67;8.67;;;;;12.48;71.14;101449.75;4988377;28;45387;-74
2021/11/14 02:17:47;;;;;;;;;8.67;6.00;;;;;12.47;71.38;101448.03;4972623;28;45541;-74
2021/11/14 02:20:14;;;;;;;;;10.67;8.67;;;;;12.48;71.16;101448.88;4972951;28;45313;-74
2021/11/14 02:22:39;;;;;;;;;9.67;8.00;;;;;12.47;71.39;101448.03;4971176;28;45328;-74
2021/11/14 02:25:08;;;;;;;;;12.33;9.00;;;;;12.49;71.03;101445.31;4972203;28;45406;-73
2021/11/14 02:27:33;;;;;;;;;9.00;9.00;;;;;12.50;71.20;101441.72;4972175;28;45562;-73
2021/11/14 02:30:00;;;;;;;;;13.33;11.00;;;;;12.49;71.18;101443.53;4989680;28;45515;-74
2021/11/14 02:32:26;;;;;;;;;9.33;9.00;;;;;12.48;70.71;101438.34;4971917;28;45304;-73
2021/11/14 02:34:51;;;;;;;;;10.67;9.00;;;;;12.39;70.96;101431.94;4970639;28;45616;-73
2021/11/14 02:37:17;;;;;;;;;10.00;8.00;;;;;12.46;71.06;101440.25;4971001;28;45234;-73
2021/11/14 02:39:42;;;;;;;;;13.67;9.33;;;;;12.38;71.50;101423.19;4972798;28;45954;-74
2021/11/14 02:42:07;;;;;;;;;7.00;5.67;;;;;12.47;71.23;101447.22;4972796;28;46115;-74
2021/11/14 02:44:33;;;;;;;;;11.00;8.00;;;;;12.46;71.25;101442.88;4973934;28;45432;-74
2021/11/14 02:46:59;;;;;;;;;15.00;9.67;;;;;12.43;71.53;101443.94;4972196;28;45443;-74
2021/11/14 02:49:25;;;;;;;;;12.33;10.33;;;;;12.42;71.37;101441.44;4972498;28;45367;-74
2021/11/14 02:51:51;;;;;;;;;9.67;9.67;;;;;12.37;71.62;101432.03;4972952;28;45380;-74
2021/11/14 02:54:17;;;;;;;;;12.67;8.33;;;;;12.35;71.83;101431.31;4975320;28;45456;-74
2021/11/14 02:56:43;;;;;;;;;13.00;9.00;;;;;12.33;71.91;101429.75;4972632;28;45401;-74
2021/11/14 02:59:10;;;;;;;;;13.00;9.00;;;;;12.30;71.77;101438.69;4970334;28;45455;-74
2021/11/14 03:01:40;;;;;;;;;13.00;10.00;;;;;12.30;72.10;101440.47;4972677;28;45626;-74
2021/11/14 03:04:09;;;;;;;;;12.67;10.33;;;;;12.30;72.35;101441.34;4970977;28;45416;-72
2021/11/14 03:06:35;;;;;;;;;14.33;11.67;;;;;12.31;72.15;101434.25;4975389;28;45584;-74
2021/11/14 03:09:01;;;;;;;;;8.00;8.00;;;;;12.30;72.10;101435.22;4998943;28;45317;-74
2021/11/14 03:11:26;;;;;;;;;15.33;11.33;;;;;12.29;72.43;101437.00;4981671;28;45628;-74
2021/11/14 03:13:52;;;;;;;;;13.33;9.33;;;;;12.31;72.14;101442.16;4977697;28;45567;-73
2021/11/14 03:16:20;;;;;;;;;14.33;8.33;;;;;12.30;72.32;101432.56;4977518;28;45561;-74
2021/11/14 03:18:46;;;;;;;;;15.33;12.00;;;;;12.30;72.57;101441.34;4976848;28;45626;-73
2021/11/14 03:21:11;;;;;;;;;12.67;7.67;;;;;12.31;72.33;101437.75;4973089;28;45437;-73
2021/11/14 03:23:37;;;;;;;;;12.00;8.00;;;;;12.22;72.46;101422.56;4968520;28;45435;-73
2021/11/14 03:26:04;;;;;;;;;13.67;9.00;;;;;12.31;72.55;101434.25;4973152;28;45380;-74
2021/11/14 03:28:31;;;;;;;;;10.33;8.67;;;;;12.29;72.26;101431.75;4983271;28;45637;-75
2021/11/14 03:30:59;;;;;;;;;12.33;9.67;;;;;12.28;72.43;101435.31;4973225;28;47329;-73
2021/11/14 03:33:25;;;;;;;;;10.00;9.00;;;;;12.28;72.27;101432.69;4970603;28;45888;-73
2021/11/14 03:35:59;;;;;;;;;10.67;8.67;;;;;12.29;72.42;101439.66;4973212;28;45359;-76
2021/11/14 03:38:35;;;;;;;;;8.67;8.00;;;;;12.29;72.00;101438.81;4974088;28;45473;-74
2021/11/14 03:41:01;;;;;;;;;8.00;7.67;;;;;12.27;72.19;101441.53;4969678;28;47119;-73
2021/11/14 03:43:29;;;;;;;;;12.00;8.00;;;;;12.26;72.15;101447.78;4971785;28;45481;-74
2021/11/14 03:45:56;;;;;;;;;9.00;7.67;;;;;12.24;72.14;101444.38;4971846;28;45592;-73
2021/11/14 03:48:23;;;;;;;;;10.67;6.67;;;;;12.24;72.09;101447.03;4971821;28;45334;-74
2021/11/14 03:50:49;;;;;;;;;7.67;6.33;;;;;12.25;71.79;101442.59;4974052;28;46294;-74
2021/11/14 03:53:15;;;;;;;;;14.33;10.33;;;;;12.21;72.02;101441.97;4977206;28;45544;-74
2021/11/14 03:55:41;;;;;;;;;11.33;8.33;;;;;12.21;72.40;101447.25;4979428;28;45551;-74
2021/11/14 03:58:07;;;;;;;;;7.00;6.00;;;;;12.22;72.07;101446.28;4980687;28;45683;-74
2021/11/14 04:00:40;;;;;;;;;10.33;8.33;;;;;12.20;71.96;101442.94;4971654;28;46227;-74
2021/11/14 04:03:08;;;;;;;;;12.00;8.00;;;;;12.20;72.07;101443.75;4973682;28;46051;-73
2021/11/14 04:05:35;;;;;;;;;14.33;12.67;;;;;12.20;72.40;101449.03;4974048;28;45432;-74
2021/11/14 04:08:07;;;;;;;;;13.33;8.00;;;;;12.23;72.24;101445.34;4971652;28;45426;-74
2021/11/14 04:10:33;;;;;;;;;13.00;11.67;;;;;12.24;72.21;101447.03;4976175;28;46102;-74
2021/11/14 04:12:58;;;;;;;;;11.33;9.67;;;;;12.24;72.10;101446.19;4976024;28;45490;-74
2021/11/14 04:15:24;;;;;;;;;12.67;8.33;;;;;12.24;72.38;101444.38;4973801;28;45441;-73
2021/11/14 04:17:55;;;;;;;;;10.33;10.33;;;;;12.21;72.25;101440.19;4978104;28;45442;-73
2021/11/14 04:20:23;;;;;;;;;14.67;11.67;;;;;12.27;72.26;101440.69;4976952;28;46254;-73
2021/11/14 04:22:49;;;;;;;;;5.67;5.00;;;;;12.23;72.20;101429.53;4972819;28;45221;-73
2021/11/14 04:25:15;;;;;;;;;10.00;8.00;;;;;12.29;72.18;101437.00;4971244;28;45589;-74
2021/11/14 04:27:40;;;;;;;;;10.00;7.00;;;;;12.28;71.98;101439.75;4970505;28;45554;-74
2021/11/14 04:30:07;;;;;;;;;10.67;7.33;;;;;12.30;71.94;101441.34;4972200;28;46080;-73
2021/11/14 04:32:32;;;;;;;;;8.00;8.00;;;;;12.29;71.77;101442.28;4972253;28;45385;-74
2021/11/14 04:34:58;;;;;;;;;10.33;8.00;;;;;12.29;71.88;101439.66;4972126;28;45364;-74
2021/11/14 04:37:23;;;;;;;;;9.67;9.67;;;;;12.28;71.65;101440.59;4971767;28;45666;-73
2021/11/14 04:39:49;;;;;;;;;6.33;6.00;;;;;12.12;71.83;101416.28;4973434;28;45430;-74
2021/11/14 04:42:14;;;;;;;;;18.00;15.00;;;;;12.27;71.99;101438.91;4974254;28;45412;-74
2021/11/14 04:44:40;;;;;;;;;9.33;8.00;;;;;12.28;71.89;101442.38;4968498;28;45535;-74
2021/11/14 04:47:06;;;;;;;;;15.33;12.67;;;;;12.29;71.31;101442.28;4969490;28;45338;-73
2021/11/14 04:49:31;;;;;;;;;9.33;8.33;;;;;12.28;71.61;101448.50;4970857;28;46175;-73
2021/11/14 04:51:57;;;;;;;;;8.00;8.00;;;;;12.29;71.66;101450.19;4970237;28;45483;-74
2021/11/14 04:54:23;;;;;;;;;11.67;7.67;;;;;12.28;71.84;101453.75;4970845;28;45498;-73
2021/11/14 04:56:49;;;;;;;;;12.67;8.00;;;;;12.27;71.86;101445.97;4973038;28;46136;-74
2021/11/14 04:59:15;;;;;;;;;12.67;8.67;;;;;12.28;71.73;101447.66;4971106;28;47214;-74
2021/11/14 05:01:41;;;;;;;;;12.00;11.00;;;;;12.29;71.54;101444.09;4969543;28;45328;-73
2021/11/14 05:04:06;;;;;;;;;8.00;7.67;;;;;12.28;71.53;101448.50;4973074;28;45304;-74
2021/11/14 05:06:32;;;;;;;;;13.00;8.00;;;;;12.29;71.57;101452.81;4971373;28;45232;-73
2021/11/14 05:08:58;;;;;;;;;11.00;7.00;;;;;12.29;71.68;101444.91;4973418;28;45357;-74
2021/11/14 05:11:23;;;;;;;;;8.67;8.67;;;;;12.29;71.51;101446.72;4969435;28;45469;-73
2021/11/14 05:13:49;;;;;;;;;11.67;10.33;;;;;12.24;71.56;101436.50;4972114;28;45371;-74
2021/11/14 05:16:14;;;;;;;;;7.67;5.00;;;;;12.28;71.73;101442.38;4971090;28;45467;-74
2021/11/14 05:18:40;;;;;;;;;6.67;5.67;;;;;12.30;71.26;101443.97;4970792;28;46277;-74
2021/11/14 05:21:07;;;;;;;;;11.67;6.67;;;;;12.30;71.61;101440.47;4970520;28;45455;-74
2021/11/14 05:23:33;;;;;;;;;10.33;7.67;;;;;12.29;71.56;101439.66;4974497;28;45545;-73
2021/11/14 05:25:59;;;;;;;;;12.00;11.00;;;;;12.24;71.67;101428.59;4973645;28;46004;-74
2021/11/14 05:28:24;;;;;;;;;4.00;3.00;;;;;12.27;71.28;101435.44;4973112;28;45320;-73
2021/11/14 05:30:49;;;;;;;;;11.00;8.00;;;;;12.27;71.68;101441.53;4973617;28;45472;-73
2021/11/14 05:33:16;;;;;;;;;12.33;11.00;;;;;12.25;71.76;101438.19;4971595;28;45600;-73
2021/11/14 05:35:41;;;;;;;;;11.33;9.33;;;;;12.24;71.43;101436.50;4975515;28;45448;-74
2021/11/14 05:38:07;;;;;;;;;9.67;7.33;;;;;12.25;71.15;101437.31;4973008;28;46555;-74
2021/11/14 05:40:34;;;;;;;;;11.00;10.00;;;;;12.23;71.43;101437.44;4971844;28;45615;-74
2021/11/14 05:42:59;;;;;;;;;10.67;8.00;;;;;12.20;71.30;101433.22;4973565;28;45387;-73
2021/11/14 05:45:25;;;;;;;;;9.00;7.33;;;;;12.21;71.59;101434.09;4973517;28;45493;-73
2021/11/14 05:47:51;;;;;;;;;11.00;9.33;;;;;12.19;71.78;101443.88;4974083;28;47527;-74
2021/11/14 05:50:17;;;;;;;;;8.33;7.33;;;;;12.18;71.52;101439.53;4971599;28;45433;-73
2021/11/14 05:52:42;;;;;;;;;9.00;8.67;;;;;12.16;71.19;101433.56;4973838;28;45467;-74
2021/11/14 05:55:09;;;;;;;;;12.00;7.33;;;;;12.18;71.62;101442.19;4973515;28;45396;-74
2021/11/14 05:58:20;;;;;;;;;6.33;6.00;;;;;12.19;72.04;101443.88;4972315;28;47015;-74
2021/11/14 06:00:32;;;;;;;;;3.00;2.00;;;;;12.16;71.71;101446.72;4979207;28;48231;-73
2021/11/14 06:03:08;;;;;;;;;8.00;8.00;;;;;12.15;71.61;101451.13;4976218;28;45238;-74
2021/11/14 06:05:38;;;;;;;;;13.00;7.00;;;;;12.16;71.90;101450.19;4974592;28;45556;-74
2021/11/14 06:08:04;;;;;;;;;12.33;7.00;;;;;12.15;72.20;101447.66;4973131;28;47042;-74
2021/11/14 06:10:29;;;;;;;;;6.33;5.33;;;;;12.11;72.11;101447.03;4972958;28;45393;-74
2021/11/14 06:12:55;;;;;;;;;11.00;8.00;;;;;12.10;71.98;101455.03;4972761;28;45859;-74
2021/11/14 06:15:22;;;;;;;;;7.67;6.67;;;;;12.09;72.17;101456.00;4988579;28;45332;-75
2021/11/14 06:17:48;;;;;;;;;7.00;5.00;;;;;12.09;71.96;101463.88;4975119;28;46070;-75
2021/11/14 06:20:15;;;;;;;;;6.00;2.33;;;;;12.06;71.94;101451.78;4972970;28;45529;-74
2021/11/14 06:22:41;;;;;;;;;6.67;6.33;;;;;12.10;72.09;101465.59;4973230;28;45639;-74
2021/11/14 06:25:07;;;;;;;;;14.00;10.00;;;;;12.07;72.16;101458.72;4988737;28;45403;-73
2021/11/14 06:27:33;;;;;;;;;8.00;8.00;;;;;12.08;72.29;101467.47;4973656;28;45523;-75
2021/11/14 06:29:58;;;;;;;;;7.67;5.67;;;;;12.08;72.01;101470.09;4975499;28;45481;-74
2021/11/14 06:32:24;;;;;;;;;6.33;6.00;;;;;12.05;72.12;101469.38;4972216;28;45539;-74
2021/11/14 06:34:49;;;;;;;;;6.00;6.00;;;;;12.05;72.42;101474.66;4971995;28;45357;-75
2021/11/14 06:37:15;;;;;;;;;9.67;8.67;;;;;12.06;72.04;101478.13;4973014;28;46332;-75
2021/11/14 06:39:40;;;;;;;;;10.00;7.00;;;;;12.08;72.56;101488.53;4974273;28;45521;-74
2021/11/14 06:42:07;;;;;;;;;5.67;5.00;;;;;12.07;72.49;101487.69;4975402;28;45597;-74
2021/11/14 06:44:33;;;;;;;;;9.67;7.00;;;;;12.03;72.47;101492.34;4975136;28;45473;-73
2021/11/14 06:46:58;;;;;;;;;1.00;1.00;;;;;12.05;72.33;101494.84;4971730;28;46448;-74
2021/11/14 06:49:24;;;;;;;;;6.33;6.33;;;;;12.04;72.62;101494.03;4972713;28;45547;-73
2021/11/14 06:51:50;;;;;;;;;8.00;8.00;;;;;12.02;72.34;101489.81;4971636;28;45545;-74
2021/11/14 06:54:15;;;;;;;;;9.67;6.00;;;;;12.00;72.54;101499.59;4972558;28;45581;-74
2021/11/14 06:56:41;;;;;;;;;6.00;5.00;;;;;11.96;72.79;101506.88;4974497;28;45582;-74
2021/11/14 06:59:06;;;;;;;;;8.67;6.00;;;;;11.96;73.31;101506.00;4970950;28;45373;-74
2021/11/14 07:01:31;;;;;;;;;10.00;9.00;;;;;11.95;73.08;101505.19;4974100;27;45518;-75
2021/11/14 07:03:57;;;;;;;;;12.00;11.67;;;;;11.97;72.72;101511.16;4972900;28;45580;-75
2021/11/14 07:06:22;;;;;;;;;6.33;5.00;;;;;11.94;72.82;101513.16;4975440;28;46500;-76
2021/11/14 07:08:48;;;;;;;;;6.00;6.00;;;;;11.92;73.15;101518.50;4977117;28;45335;-75
2021/11/14 07:11:14;;;;;;;;;12.00;7.33;;;;;11.88;72.84;101517.91;4974826;28;45310;-75
2021/11/14 07:13:39;;;;;;;;;10.33;8.00;;;;;11.89;73.45;101522.19;4973391;28;45516;-73
2021/11/14 07:16:06;;;;;;;;;12.00;10.33;;;;;11.87;73.35;101520.59;4970755;28;46068;-74
2021/11/14 07:18:31;;;;;;;;;8.33;7.00;;;;;11.87;73.26;101529.38;4974594;28;45302;-74
2021/11/14 07:20:57;;;;;;;;;5.00;5.00;;;;;11.88;73.21;101531.06;4978000;28;45235;-74
2021/11/14 07:23:22;;;;;;;;;10.00;8.33;;;;;11.88;73.47;101524.94;4975055;28;45498;-75
2021/11/14 07:25:48;;;;;;;;;12.67;11.67;;;;;11.90;72.91;101525.69;4976673;28;47299;-74
2021/11/14 07:28:13;;;;;;;;;11.00;10.33;;;;;11.94;73.47;101535.06;4978295;28;45327;-75
2021/11/14 07:30:39;;;;;;;;;9.33;7.00;;;;;11.94;73.38;101534.22;4979729;28;45412;-75
2021/11/14 07:33:04;;;;;;;;;11.67;11.00;;;;;11.93;73.19;101532.53;4977330;28;45541;-74
2021/11/14 07:35:30;;;;;;;;;9.67;7.67;;;;;11.95;73.08;101538.53;4974773;28;46538;-75
2021/11/14 07:37:56;;;;;;;;;9.67;9.67;;;;;11.94;73.04;101545.59;4980535;28;45337;-75
2021/11/14 07:40:23;;;;;;;;;10.00;7.00;;;;;11.94;73.01;101552.66;4980045;28;45478;-75
2021/11/14 07:42:53;;;;;;;;;6.33;6.33;;;;;11.89;72.73;101553.78;4979858;28;45417;-75
2021/11/14 07:45:20;;;;;;;;;6.00;6.00;;;;;11.86;73.11;101553.16;4975199;28;48952;-73
2021/11/14 07:47:46;;;;;;;;;7.67;7.67;;;;;11.85;73.07;101554.94;4979197;28;45417;-73
2021/11/14 07:50:14;;;;;;;;;9.67;7.00;;;;;11.86;73.18;101554.00;4972264;28;45277;-76
2021/11/14 07:52:40;;;;;;;;;7.00;5.00;;;;;11.87;72.99;101549.56;4973527;28;45556;-74
2021/11/14 07:55:09;;;;;;;;;11.33;7.00;;;;;11.86;73.26;101563.69;4974830;28;45543;-75
2021/11/14 07:57:35;;;;;;;;;7.67;6.00;;;;;11.82;73.25;101563.03;4973076;28;45317;-74
2021/11/14 08:00:04;;;;;;;;;7.00;5.67;;;;;11.83;73.26;101559.47;4975801;28;45503;-75
2021/11/14 08:02:29;;;;;;;;;10.33;8.00;;;;;11.81;73.68;101560.53;4974565;28;45375;-73
2021/11/14 08:04:55;;;;;;;;;10.00;8.00;;;;;11.86;73.28;101564.53;4973326;28;47251;-75
2021/11/14 08:07:20;;;;;;;;;8.00;8.00;;;;;11.89;73.83;101568.75;4973926;28;45315;-74
2021/11/14 08:09:45;;;;;;;;;11.33;7.00;;;;;11.89;73.69;101566.09;4975419;28;44790;-74
2021/11/14 08:12:11;;;;;;;;;6.00;6.00;;;;;11.94;73.64;101557.91;4974063;28;45284;-75
2021/11/14 08:14:36;;;;;;;;;10.00;7.00;;;;;11.95;73.58;101568.38;4974890;28;46451;-76
2021/11/14 08:17:02;;;;;;;;;5.00;5.00;;;;;11.95;73.44;101570.13;4971147;28;45410;-74
2021/11/14 08:19:27;;;;;;;;;9.33;6.67;;;;;11.93;73.64;101574.66;4971307;28;45346;-74
2021/11/14 08:21:53;;;;;;;;;7.67;5.67;;;;;11.89;73.62;101574.00;4971689;28;45273;-75
2021/11/14 08:24:18;;;;;;;;;13.67;8.00;;;;;11.91;73.71;101572.13;4971459;28;46936;-73
2021/11/14 08:26:44;;;;;;;;;9.00;7.00;;;;;11.94;73.72;101577.19;4973376;28;45532;-74
2021/11/14 08:29:09;;;;;;;;;6.00;6.00;;;;;11.95;73.58;101578.00;4972044;28;45535;-74
2021/11/14 08:31:35;;;;;;;;;6.67;5.00;;;;;11.95;73.46;101572.75;4972969;28;45306;-73
2021/11/14 08:34:00;;;;;;;;;7.00;7.00;;;;;11.93;73.66;101575.50;4976942;28;47190;-75
2021/11/14 08:36:27;;;;;;;;;8.33;8.00;;;;;11.95;73.75;101564.84;4971857;28;45441;-74
2021/11/14 08:38:54;;;;;;;;;8.00;6.33;;;;;11.95;73.58;101563.13;4973735;28;45399;-74
2021/11/14 08:41:19;;;;;;;;;5.00;5.00;;;;;11.96;73.33;101567.44;4971628;28;45390;-74
2021/11/14 08:43:45;;;;;;;;;7.33;7.00;;;;;11.97;73.48;101565.63;4969679;28;47139;-74
2021/11/14 08:46:10;;;;;;;;;9.33;7.67;;;;;12.01;73.58;101578.50;4973281;28;45834;-74
2021/11/14 08:48:37;;;;;;;;;7.67;6.00;;;;;12.00;73.73;101555.75;4972360;28;45367;-73
2021/11/14 08:51:03;;;;;;;;;11.33;10.67;;;;;12.04;73.82;101561.66;4973171;28;45566;-76
2021/11/14 08:53:28;;;;;;;;;7.00;7.00;;;;;12.10;73.92;101557.75;4972459;28;46595;-74
2021/11/14 08:55:55;;;;;;;;;8.00;8.00;;;;;12.17;73.60;101562.50;4970401;28;45362;-76
2021/11/14 08:58:20;;;;;;;;;9.00;8.00;;;;;12.22;73.72;101570.06;4969522;28;45352;-74
2021/11/14 09:00:47;;;;;;;;;7.00;7.00;;;;;12.27;73.21;101564.50;4971331;28;45487;-74
2021/11/14 09:03:12;;;;;;;;;12.00;8.00;;;;;12.28;73.18;101559.13;4971647;28;45568;-74
2021/11/14 09:05:37;;;;;;;;;14.67;9.67;;;;;12.34;73.28;101566.63;4970313;28;45502;-75
2021/11/14 09:08:05;;;;;;;;;8.67;6.67;;;;;12.37;72.78;101574.31;4965735;28;45390;-74
2021/11/14 09:10:32;;;;;;;;;7.00;7.00;;;;;12.41;72.85;101579.38;4971109;28;45502;-75
2021/11/14 09:12:58;;;;;;;;;9.67;9.00;;;;;12.43;72.77;101573.06;4970706;28;45422;-74
2021/11/14 09:15:25;;;;;;;;;10.67;7.00;;;;;12.48;72.58;101575.38;4971003;28;45476;-75
2021/11/14 09:17:51;;;;;;;;;8.67;7.67;;;;;12.45;71.55;101575.59;4972235;28;45372;-75
2021/11/14 09:20:16;;;;;;;;;8.00;7.67;;;;;12.41;71.42;101584.66;4970323;28;45500;-72
2021/11/14 09:22:42;;;;;;;;;6.00;6.00;;;;;12.38;71.21;101591.81;4969237;28;45587;-77
2021/11/14 09:25:10;;;;;;;;;13.00;6.00;;;;;12.29;71.51;101579.25;4974832;28;45652;-75
2021/11/14 09:27:36;;;;;;;;;9.33;7.33;;;;;12.21;71.13;101584.22;4970908;28;45308;-75
2021/11/14 09:30:04;;;;;;;;;9.00;8.67;;;;;12.17;71.88;101588.00;4973494;28;45398;-75
2021/11/14 09:32:30;;;;;;;;;7.50;7.00;;;;;12.15;72.58;101582.00;4972396;28;45554;-75
2021/11/14 09:34:56;;;;;;;;;12.67;9.33;;;;;12.20;72.49;101582.53;4970525;28;45436;-72
2021/11/14 09:37:22;;;;;;;;;9.00;7.33;;;;;12.28;71.99;101582.00;4970826;28;45376;-74
2021/11/14 09:39:47;;;;;;;;;7.67;7.00;;;;;12.29;71.29;101581.91;4968044;28;45381;-75
2021/11/14 09:42:15;;;;;;;;;8.00;8.00;;;;;12.27;71.37;101583.78;4971050;28;46312;-75
2021/11/14 09:44:40;;;;;;;;;5.67;5.67;;;;;12.23;71.59;101592.84;4970638;28;45369;-75
2021/11/14 09:47:05;;;;;;;;;8.33;6.00;;;;;12.19;71.77;101592.19;4968545;27;45710;-74
2021/11/14 09:49:33;;;;;;;;;7.67;6.33;;;;;12.21;71.79;101597.38;4970739;28;45495;-74
2021/11/14 09:52:00;;;;;;;;;8.33;6.00;;;;;12.24;71.78;101594.53;4968571;28;45301;-75
2021/11/14 09:54:31;;;;;;;;;10.67;6.00;;;;;12.26;71.94;101599.69;4969802;28;45441;-75
2021/11/14 09:56:58;;;;;;;;;4.00;4.00;;;;;12.29;71.73;101596.88;4972513;28;45312;-75
2021/11/14 09:59:24;;;;;;;;;10.00;6.67;;;;;12.30;71.47;101601.16;4971266;28;45341;-76
2021/11/14 10:01:51;;;;;;;;;7.00;6.00;;;;;12.29;71.81;101591.59;4972114;28;45449;-77
2021/11/14 10:04:17;;;;;;;;;9.67;8.00;;;;;12.36;71.62;101596.34;4970763;28;45350;-74
2021/11/14 10:06:54;;;;;;;;;8.67;7.67;;;;;12.40;71.83;101593.50;4970283;28;45407;-75
2021/11/14 10:09:40;;;;;;;;;11.33;8.00;;;;;12.40;71.48;101598.78;4972803;28;49412;-75
2021/11/14 10:12:27;;;;;;;;;8.00;6.33;;;;;12.38;71.42;101602.34;4984327;28;45280;-74
2021/11/14 10:15:14;;;;;;;;;9.00;7.33;;;;;12.35;71.65;101602.56;4984946;28;45354;-76
2021/11/14 10:17:49;;;;;;;;;6.67;5.00;;;;;12.38;71.41;101602.34;4988837;28;45390;-75
2021/11/14 10:20:22;;;;;;;;;8.33;7.00;;;;;12.41;71.55;101601.28;4984292;28;45452;-75
2021/11/14 10:22:54;;;;;;;;;13.33;9.00;;;;;12.43;71.74;101602.03;4977210;28;46482;-74
2021/11/14 10:25:20;;;;;;;;;11.00;7.33;;;;;12.47;71.93;101605.31;4974930;28;45519;-75
2021/11/14 10:27:51;;;;;;;;;10.67;8.00;;;;;12.49;71.84;101606.03;4974849;28;45382;-74
2021/11/14 10:30:24;;;;;;;;;15.00;9.00;;;;;12.49;71.79;101606.03;4972970;28;45433;-75
2021/11/14 10:32:51;;;;;;;;;13.67;10.33;;;;;12.50;71.85;101610.38;4974626;28;47164;-74
2021/11/14 10:35:17;;;;;;;;;10.00;10.00;;;;;12.48;72.07;101596.44;4966547;28;45530;-75
2021/11/14 10:37:43;;;;;;;;;8.33;8.33;;;;;12.52;72.06;101601.41;4973073;28;45338;-74
2021/11/14 10:40:30;;;;;;;;;15.00;13.00;;;;;12.54;71.64;101602.16;4972398;27;45642;-75
2021/11/14 10:43:01;;;;;;;;;14.33;13.33;;;;;12.48;71.40;101602.56;4972611;28;45517;-75
2021/11/14 10:45:28;;;;;;;;;12.67;9.00;;;;;12.46;71.47;101595.72;4974518;28;45388;-74
2021/11/14 10:47:55;;;;;;;;;18.00;15.67;;;;;12.44;71.80;101605.50;4975398;28;45405;-76
2021/11/14 10:50:21;;;;;;;;;15.67;10.00;;;;;12.45;71.70;101604.56;4971907;28;45358;-75
2021/11/14 10:52:52;;;;;;;;;20.33;15.00;;;;;12.47;71.95;101603.53;4972500;28;47232;-74
2021/11/14 10:55:18;;;;;;;;;14.33;10.33;;;;;12.42;71.61;101591.63;4970576;28;45459;-74
2021/11/14 10:57:43;;;;;;;;;18.33;13.00;;;;;12.49;71.46;101599.00;4969533;28;45424;-75
2021/11/14 11:00:11;;;;;;;;;15.33;10.67;;;;;12.44;71.60;101594.97;4973124;28;45377;-75
2021/11/14 11:02:41;;;;;;;;;13.00;13.00;;;;;12.35;71.63;101601.72;4972392;28;45568;-77
2021/11/14 11:05:16;;;;;;;;;14.67;11.33;;;;;12.28;71.62;101608.34;4971221;28;45559;-75
2021/11/14 11:07:50;;;;;;;;;14.00;14.00;;;;;12.28;71.52;101606.56;4972410;28;45342;-75
2021/11/14 11:10:16;;;;;;;;;17.67;12.33;;;;;12.26;71.88;101603.19;4973252;28;45375;-76
2021/11/14 11:12:42;;;;;;;;;14.00;13.00;;;;;12.28;71.98;101601.28;4990514;28;47316;-75
2021/11/14 11:15:10;;;;;;;;;18.00;13.33;;;;;12.35;71.88;101609.59;4977136;28;45423;-76
2021/11/14 11:17:48;;;;;;;;;19.67;16.67;;;;;12.40;71.73;101609.31;4978993;28;45382;-74